createdAt,value
2022-12-08T00:01:10.824Z,100205.91
2022-12-08T00:03:44.305Z,100204.88
2022-12-08T00:06:39.956Z,100198.88
2022-12-08T00:09:25.859Z,100196.44
2022-12-08T00:11:59.110Z,100196.44
2022-12-08T00:14:33.101Z,100208.00
2022-12-08T00:17:08.470Z,100197.47
2022-12-08T00:19:41.797Z,100202.19
2022-12-08T00:22:15.669Z,100206.09
2022-12-08T00:24:50.875Z,100206.47
2022-12-08T00:27:22.017Z,100205.97
2022-12-08T00:29:53.251Z,100206.88
2022-12-08T00:32:26.792Z,100201.44
2022-12-08T00:34:58.074Z,100195.88
2022-12-08T00:37:28.914Z,100194.78
2022-12-08T00:39:59.576Z,100193.56
2022-12-08T00:42:38.418Z,100187.09
2022-12-08T00:45:10.150Z,100185.34
2022-12-08T00:47:43.085Z,100187.84
2022-12-08T00:50:14.304Z,100189.69
2022-12-08T00:52:44.756Z,100182.94
2022-12-08T00:55:15.246Z,100177.28
2022-12-08T00:57:45.249Z,100173.78
2022-12-08T01:00:17.144Z,100175.91
2022-12-08T01:02:50.132Z,100172.84
2022-12-08T01:05:20.666Z,100164.53
2022-12-08T01:07:51.098Z,100173.31
2022-12-08T01:10:22.074Z,100177.75
2022-12-08T01:12:51.979Z,100175.81
2022-12-08T01:15:22.736Z,100172.38
2022-12-08T01:17:55.416Z,100181.00
2022-12-08T01:20:25.852Z,100176.06
2022-12-08T01:22:55.794Z,100172.13
2022-12-08T01:25:26.593Z,100170.25
2022-12-08T01:27:56.853Z,100167.75
2022-12-08T01:30:27.452Z,100168.22
2022-12-08T01:33:01.669Z,100166.44
2022-12-08T01:35:33.178Z,100166.63
2022-12-08T01:38:03.304Z,100159.78
2022-12-08T01:40:33.795Z,100155.06
2022-12-08T01:43:10.838Z,100155.72
2022-12-08T01:45:43.066Z,100147.97
2022-12-08T01:48:20.212Z,100150.91
2022-12-08T01:50:51.674Z,100149.44
2022-12-08T01:53:25.934Z,100143.50
2022-12-08T01:56:01.334Z,100137.09
2022-12-08T01:58:37.676Z,100133.03
2022-12-08T02:01:09.077Z,100126.38
2022-12-08T02:03:45.821Z,100122.47
2022-12-08T02:06:17.050Z,100119.59
2022-12-08T02:08:48.547Z,100120.06
2022-12-08T02:11:26.099Z,100107.31
2022-12-08T02:13:57.423Z,100111.09
2022-12-08T02:16:38.221Z,100114.69
2022-12-08T02:19:49.264Z,100109.50
2022-12-08T02:22:27.429Z,100113.34
2022-12-08T02:25:05.011Z,100108.16
2022-12-08T02:27:42.574Z,100108.97
2022-12-08T02:30:21.455Z,100101.72
2022-12-08T02:33:23.739Z,100103.03
2022-12-08T02:36:01.246Z,100101.56
2022-12-08T02:38:42.908Z,100098.31
2022-12-08T02:41:22.250Z,100094.25
2022-12-08T02:44:01.250Z,100093.41
2022-12-08T02:46:57.500Z,100090.81
2022-12-08T02:49:31.332Z,100086.69
2022-12-08T02:52:44.127Z,100077.66
2022-12-08T02:55:34.623Z,100076.31
2022-12-08T02:58:36.439Z,100064.50
2022-12-08T03:01:30.454Z,100053.31
2022-12-08T03:04:08.777Z,100057.66
2022-12-08T03:06:48.558Z,100059.09
2022-12-08T03:09:30.431Z,100056.13
2022-12-08T03:12:08.902Z,100054.47
2022-12-08T03:14:41.601Z,100054.44
2022-12-08T03:17:13.940Z,100045.22
2022-12-08T03:19:49.613Z,100046.69
2022-12-08T03:22:24.327Z,100041.03
2022-12-08T03:24:58.634Z,100035.00
2022-12-08T03:27:32.171Z,100034.00
2022-12-08T03:30:03.933Z,100033.66
2022-12-08T03:32:40.381Z,100029.81
2022-12-08T03:35:15.240Z,100027.88
2022-12-08T03:37:46.920Z,100025.56
2022-12-08T03:40:22.526Z,100015.56
2022-12-08T03:42:52.982Z,100020.09
2022-12-08T03:45:22.922Z,100009.47
2022-12-08T03:47:54.240Z,100012.31
2022-12-08T03:50:24.777Z,100003.44
2022-12-08T03:52:57.909Z,100006.41
2022-12-08T03:55:30.920Z,100001.69
2022-12-08T03:58:01.221Z,100009.66
2022-12-08T04:00:31.145Z,99999.66
2022-12-08T04:03:01.692Z,100001.03
2022-12-08T04:05:31.950Z,100001.69
2022-12-08T04:08:02.249Z,99994.72
2022-12-08T04:10:35.419Z,99986.66
2022-12-08T04:13:06.041Z,99981.03
2022-12-08T04:15:36.049Z,99982.59
2022-12-08T04:18:08.164Z,99980.53
2022-12-08T04:20:43.446Z,99978.97
2022-12-08T04:23:14.817Z,99977.41
2022-12-08T04:25:48.280Z,99971.31
2022-12-08T04:28:18.539Z,99974.72
2022-12-08T04:30:48.576Z,99975.56
2022-12-08T04:33:19.502Z,99974.44
2022-12-08T04:35:49.691Z,99970.91
2022-12-08T04:38:23.801Z,99972.28
2022-12-08T04:41:18.949Z,99973.09
2022-12-08T04:43:49.304Z,99972.69
2022-12-08T04:46:19.312Z,99973.53
2022-12-08T04:48:49.647Z,99972.53
2022-12-08T04:51:21.619Z,99974.28
2022-12-08T04:53:52.166Z,99966.91
2022-12-08T04:56:25.117Z,99958.72
2022-12-08T04:58:55.761Z,99964.63
2022-12-08T05:01:26.189Z,99958.19
2022-12-08T05:03:56.810Z,99952.72
2022-12-08T05:06:27.206Z,99952.16
2022-12-08T05:08:57.909Z,99954.94
2022-12-08T05:11:30.788Z,99941.78
2022-12-08T05:14:01.919Z,99951.03
2022-12-08T05:16:31.910Z,99950.94
2022-12-08T05:19:02.199Z,99952.50
2022-12-08T05:21:32.184Z,99947.53
2022-12-08T05:24:02.438Z,99950.19
2022-12-08T05:26:35.015Z,99947.19
2022-12-08T05:29:05.229Z,99948.06
2022-12-08T05:31:35.208Z,99948.06
2022-12-08T05:34:05.524Z,99954.56
2022-12-08T05:36:35.515Z,99955.22
2022-12-08T05:39:06.290Z,99955.41
2022-12-08T05:41:38.798Z,99947.63
2022-12-08T05:44:09.371Z,99946.28
2022-12-08T05:46:39.673Z,99947.34
2022-12-08T05:49:10.022Z,99946.22
2022-12-08T05:51:39.918Z,99950.03
2022-12-08T05:54:10.244Z,99942.75
2022-12-08T05:56:42.863Z,99936.84
2022-12-08T05:59:13.202Z,99937.56
2022-12-08T06:01:44.239Z,99937.50
2022-12-08T06:04:14.598Z,99939.97
2022-12-08T06:06:44.549Z,99941.44
2022-12-08T06:09:15.108Z,99939.88
2022-12-08T06:11:48.510Z,99938.94
2022-12-08T06:14:18.804Z,99949.22
2022-12-08T06:16:48.854Z,99943.28
2022-12-08T06:19:19.199Z,99934.69
2022-12-08T06:21:49.187Z,99935.31
2022-12-08T06:24:19.563Z,99940.53
2022-12-08T06:26:52.130Z,99933.56
2022-12-08T06:29:22.422Z,99933.47
2022-12-08T06:31:52.856Z,99939.47
2022-12-08T06:34:23.165Z,99934.28
2022-12-08T06:36:53.272Z,99938.53
2022-12-08T06:39:24.088Z,99941.84
2022-12-08T06:42:09.104Z,99940.63
2022-12-08T06:44:39.357Z,99944.97
2022-12-08T06:47:09.366Z,99938.03
2022-12-08T06:49:39.708Z,99939.69
2022-12-08T06:52:09.631Z,99938.22
2022-12-08T06:54:40.082Z,99938.22
2022-12-08T06:57:12.706Z,99939.97
2022-12-08T06:59:43.018Z,99944.25
2022-12-08T07:02:13.428Z,99951.09
2022-12-08T07:04:43.813Z,99957.13
2022-12-08T07:07:13.761Z,99951.94
2022-12-08T07:09:44.269Z,99958.88
2022-12-08T07:12:17.142Z,99959.00
2022-12-08T07:14:47.703Z,99959.91
2022-12-08T07:17:18.003Z,99961.47
2022-12-08T07:19:48.644Z,99964.50
2022-12-08T07:22:18.529Z,99959.09
2022-12-08T07:24:48.852Z,99963.88
2022-12-08T07:27:21.454Z,99956.28
2022-12-08T07:29:51.754Z,99968.66
2022-12-08T07:32:21.753Z,99967.41
2022-12-08T07:34:52.103Z,99972.47
2022-12-08T07:37:22.038Z,99972.47
2022-12-08T07:39:52.308Z,99977.59
2022-12-08T07:42:24.889Z,99964.59
2022-12-08T07:44:55.229Z,99966.25
2022-12-08T07:47:25.569Z,99966.06
2022-12-08T07:49:55.821Z,99958.50
2022-12-08T07:52:26.041Z,99951.94
2022-12-08T07:54:56.374Z,99956.09
2022-12-08T07:57:28.925Z,99957.84
2022-12-08T07:59:59.327Z,99956.91
2022-12-08T08:02:29.391Z,99960.53
2022-12-08T08:04:59.832Z,99963.97
2022-12-08T08:07:29.813Z,99968.31
2022-12-08T08:10:00.106Z,99962.09
2022-12-08T08:12:33.147Z,99961.19
2022-12-08T08:15:04.734Z,99969.97
2022-12-08T08:17:35.118Z,99965.63
2022-12-08T08:20:07.252Z,99965.44
2022-12-08T08:22:38.130Z,99969.47
2022-12-08T08:25:09.051Z,99970.19
2022-12-08T08:27:41.657Z,99969.19
2022-12-08T08:30:19.874Z,99974.25
2022-12-08T08:32:50.817Z,99976.97
2022-12-08T08:35:21.379Z,99977.69
2022-12-08T08:37:51.291Z,99966.47
2022-12-08T08:40:21.677Z,99969.81
2022-12-08T08:42:54.239Z,99968.03
2022-12-08T08:45:24.619Z,99967.31
2022-12-08T08:47:54.644Z,99968.03
2022-12-08T08:50:24.908Z,99980.91
2022-12-08T08:52:54.887Z,99978.00
2022-12-08T08:55:25.448Z,99975.50
2022-12-08T08:57:57.911Z,99977.06
2022-12-08T09:00:28.252Z,99970.72
2022-12-08T09:02:58.195Z,99966.66
2022-12-08T09:05:28.547Z,99973.94
2022-12-08T09:07:58.539Z,99971.25
2022-12-08T09:10:29.870Z,99966.78
2022-12-08T09:13:40.169Z,99974.44
2022-12-08T09:16:14.641Z,99957.53
2022-12-08T09:18:44.894Z,99946.94
2022-12-08T09:21:20.341Z,99950.84
2022-12-08T09:23:50.600Z,99942.03
2022-12-08T09:26:22.437Z,99942.13
2022-12-08T09:28:53.438Z,99946.69
2022-12-08T09:31:27.376Z,99946.69
2022-12-08T09:33:57.422Z,99937.75
2022-12-08T09:36:28.128Z,99943.66
2022-12-08T09:38:58.572Z,99942.50
2022-12-08T09:41:40.406Z,99936.13
2022-12-08T09:44:39.332Z,99931.88
2022-12-08T09:47:21.006Z,99935.09
2022-12-08T09:49:58.612Z,99934.97
2022-12-08T09:52:34.984Z,99933.09
2022-12-08T09:55:14.388Z,99934.78
2022-12-08T09:57:44.843Z,99926.06
2022-12-08T10:00:16.482Z,99918.75
2022-12-08T10:02:50.253Z,99927.34
2022-12-08T10:05:21.717Z,99936.72
2022-12-08T10:08:01.535Z,99919.97
2022-12-08T10:10:40.821Z,99917.03
2022-12-08T10:13:19.842Z,99922.09
2022-12-08T10:15:55.744Z,99916.69
2022-12-08T10:18:31.793Z,99912.91
2022-12-08T10:21:14.220Z,99916.97
2022-12-08T10:23:47.210Z,99919.44
2022-12-08T10:26:18.723Z,99927.75
2022-12-08T10:28:49.075Z,99908.59
2022-12-08T10:31:21.606Z,99912.97
2022-12-08T10:34:00.273Z,99917.97
2022-12-08T10:36:49.173Z,99916.19
2022-12-08T10:39:40.684Z,99903.28
2022-12-08T10:42:22.148Z,99899.84
2022-12-08T10:45:00.857Z,99897.16
2022-12-08T10:47:32.501Z,99897.06
2022-12-08T10:50:20.358Z,99902.97
2022-12-08T10:53:00.026Z,99897.88
2022-12-08T10:56:05.337Z,99889.97
2022-12-08T10:58:41.280Z,99896.66
2022-12-08T11:01:17.318Z,99894.06
2022-12-08T11:03:51.565Z,99893.00
2022-12-08T11:06:29.159Z,99884.72
2022-12-08T11:09:01.263Z,99885.06
2022-12-08T11:11:42.378Z,99896.19
2022-12-08T11:14:21.080Z,99878.78
2022-12-08T11:16:53.292Z,99881.28
2022-12-08T11:19:28.409Z,99881.88
2022-12-08T11:22:01.763Z,99869.72
2022-12-08T11:24:37.346Z,99873.97
2022-12-08T11:27:09.187Z,99873.84
2022-12-08T11:29:41.250Z,99871.25
2022-12-08T11:32:16.114Z,99863.97
2022-12-08T11:34:50.760Z,99863.84
2022-12-08T11:37:35.007Z,99859.47
2022-12-08T11:40:10.658Z,99865.72
2022-12-08T11:42:52.894Z,99859.81
2022-12-08T11:45:29.610Z,99861.38
2022-12-08T11:48:08.858Z,99856.16
2022-12-08T11:50:46.045Z,99864.78
2022-12-08T11:53:26.146Z,99873.19
2022-12-08T11:56:00.449Z,99868.81
2022-12-08T11:58:37.814Z,99868.00
2022-12-08T12:01:08.356Z,99861.84
2022-12-08T12:03:42.879Z,99881.00
2022-12-08T12:06:53.676Z,99868.81
2022-12-08T12:09:39.703Z,99880.50
2022-12-08T12:12:21.172Z,99880.69
2022-12-08T12:15:21.544Z,99872.16
2022-12-08T12:17:55.917Z,99878.41
2022-12-08T12:20:31.199Z,99869.78
2022-12-08T12:23:06.251Z,99869.91
2022-12-08T12:25:40.204Z,99872.72
2022-12-08T12:28:11.804Z,99873.56
2022-12-08T12:31:01.065Z,99867.53
2022-12-08T12:33:37.062Z,99867.53
2022-12-08T12:36:10.556Z,99866.81
2022-12-08T12:39:01.394Z,99868.47
2022-12-08T12:41:39.879Z,99871.28
2022-12-08T12:44:25.025Z,99864.09
2022-12-08T12:47:03.854Z,99867.88
2022-12-08T12:50:17.092Z,99865.28
2022-12-08T12:52:53.359Z,99871.41
2022-12-08T12:55:58.874Z,99867.66
2022-12-08T12:58:43.692Z,99865.53
2022-12-08T13:01:46.577Z,99851.94
2022-12-08T13:04:17.287Z,99859.72
2022-12-08T13:06:51.110Z,99860.22
2022-12-08T13:09:45.364Z,99856.78
2022-12-08T13:12:26.481Z,99856.78
2022-12-08T13:15:07.580Z,99846.28
2022-12-08T13:17:40.628Z,99849.63
2022-12-08T13:20:24.574Z,99856.34
2022-12-08T13:23:21.525Z,99855.53
2022-12-08T13:26:23.354Z,99853.50
2022-12-08T13:29:19.585Z,99846.66
2022-12-08T13:31:55.083Z,99850.91
2022-12-08T13:34:45.603Z,99847.13
2022-12-08T13:37:28.541Z,99846.31
2022-12-08T13:40:04.088Z,99852.47
2022-12-08T13:42:45.140Z,99851.28
2022-12-08T13:49:09.627Z,99853.66
2022-12-08T13:53:22.511Z,99859.72
2022-12-08T13:57:24.575Z,99859.47
2022-12-08T13:59:54.958Z,99866.19
2022-12-08T14:02:31.040Z,99856.63
2022-12-08T14:05:29.790Z,99854.75
2022-12-08T14:07:56.976Z,99860.06
2022-12-08T14:10:30.611Z,99852.38
2022-12-08T14:13:06.646Z,99854.97
2022-12-08T14:15:38.932Z,99858.41
2022-12-08T14:18:24.094Z,99858.28
2022-12-08T14:21:22.562Z,99863.59
2022-12-08T14:23:52.563Z,99860.91
2022-12-08T14:26:22.931Z,99858.28
2022-12-08T14:28:53.107Z,99861.00
2022-12-08T14:31:23.508Z,99868.81
2022-12-08T14:33:56.534Z,99861.63
2022-12-08T14:36:30.257Z,99862.41
2022-12-08T14:39:00.606Z,99865.16
2022-12-08T14:41:36.166Z,99879.47
2022-12-08T14:44:26.939Z,99899.75
2022-12-08T14:47:07.246Z,99894.06
2022-12-08T14:49:39.765Z,99892.00
2022-12-08T14:52:15.199Z,99888.41
2022-12-08T14:54:46.010Z,99884.53
2022-12-08T14:57:18.278Z,99877.88
2022-12-08T14:59:50.039Z,99880.91
2022-12-08T15:02:34.557Z,99887.53
2022-12-08T15:05:07.543Z,99884.63
2022-12-08T15:07:49.482Z,99891.78
2022-12-08T15:10:26.456Z,99892.50
2022-12-08T15:13:03.070Z,99892.19
2022-12-08T15:15:34.472Z,99891.09
2022-12-08T15:18:13.863Z,99888.94
2022-12-08T15:20:46.274Z,99894.88
2022-12-08T15:23:27.726Z,99895.50
2022-12-08T15:25:58.750Z,99893.16
2022-12-08T15:28:31.483Z,99895.91
2022-12-08T15:31:01.865Z,99898.78
2022-12-08T15:33:32.215Z,99902.31
2022-12-08T15:36:02.159Z,99898.31
2022-12-08T15:38:35.133Z,99903.03
2022-12-08T15:41:07.982Z,99906.44
2022-12-08T15:43:40.407Z,99910.38
2022-12-08T15:46:10.406Z,99906.56
2022-12-08T15:48:41.193Z,99909.28
2022-12-08T15:51:11.506Z,99913.59
2022-12-08T15:53:45.159Z,99918.16
2022-12-08T15:56:27.341Z,99911.09
2022-12-08T15:58:59.110Z,99912.97
2022-12-08T16:01:29.781Z,99908.84
2022-12-08T16:09:46.955Z,99907.19
2022-12-08T16:12:48.373Z,99909.78
2022-12-08T16:18:18.192Z,99905.41
2022-12-08T16:23:43.461Z,99911.63
2022-12-08T16:29:10.241Z,99913.88
2022-12-08T16:31:40.749Z,99921.66
2022-12-08T16:34:10.792Z,99922.59
2022-12-08T16:36:41.081Z,99924.41
2022-12-08T16:39:13.136Z,99927.81
2022-12-08T16:41:58.511Z,99929.69
2022-12-08T16:44:29.429Z,99929.00
2022-12-08T16:46:59.733Z,99936.19
2022-12-08T16:49:29.783Z,99931.09
2022-12-08T16:52:00.194Z,99941.38
2022-12-08T16:54:31.993Z,99934.50
2022-12-08T16:57:04.927Z,99935.13
2022-12-08T16:59:34.916Z,99935.63
2022-12-08T17:02:05.196Z,99934.81
2022-12-08T17:04:35.228Z,99940.34
2022-12-08T17:07:05.784Z,99937.53
2022-12-08T17:09:35.694Z,99937.97
2022-12-08T17:12:10.401Z,99939.34
2022-12-08T17:14:40.319Z,99945.41
2022-12-08T17:17:10.639Z,99947.72
2022-12-08T17:19:40.818Z,99946.06
2022-12-08T17:22:11.260Z,99953.34
2022-12-08T17:24:41.453Z,99949.94
2022-12-08T17:27:14.466Z,99953.38
2022-12-08T17:29:44.428Z,99948.41
2022-12-08T17:32:15.152Z,99956.28
2022-12-08T17:34:45.126Z,99959.00
2022-12-08T17:37:15.658Z,99957.34
2022-12-08T17:39:45.946Z,99951.41
2022-12-08T17:42:18.831Z,99954.53
2022-12-08T17:44:49.246Z,99950.28
2022-12-08T17:47:19.582Z,99955.88
2022-12-08T17:49:49.589Z,99953.81
2022-12-08T17:52:19.912Z,99947.16
2022-12-08T17:54:49.874Z,99959.50
2022-12-08T17:57:22.789Z,99960.31
2022-12-08T17:59:52.987Z,99960.44
2022-12-08T18:02:23.499Z,99960.75
2022-12-08T18:04:53.564Z,99957.56
2022-12-08T18:07:24.202Z,99966.06
2022-12-08T18:09:54.585Z,99965.84
2022-12-08T18:12:27.950Z,99964.06
2022-12-08T18:14:58.268Z,99967.72
2022-12-08T18:17:28.954Z,99959.00
2022-12-08T18:19:59.139Z,99962.84
2022-12-08T18:22:29.938Z,99961.69
2022-12-08T18:25:00.248Z,99959.59
2022-12-08T18:27:36.290Z,99963.97
2022-12-08T18:30:10.571Z,99960.16
2022-12-08T18:32:40.887Z,99966.59
2022-12-08T18:35:11.761Z,99971.13
2022-12-08T18:37:43.025Z,99971.34
2022-12-08T18:40:16.013Z,99969.38
2022-12-08T18:42:49.153Z,99974.78
2022-12-08T18:45:22.582Z,99975.41
2022-12-08T18:47:54.759Z,99964.72
2022-12-08T18:50:26.490Z,99977.69
2022-12-08T18:52:57.084Z,99979.56
2022-12-08T18:55:27.100Z,99980.78
2022-12-08T18:58:00.153Z,99982.97
2022-12-08T19:00:30.130Z,99984.63
2022-12-08T19:03:00.609Z,99980.28
2022-12-08T19:05:37.762Z,99986.59
2022-12-08T19:08:08.869Z,99986.50
2022-12-08T19:10:40.165Z,99985.16
2022-12-08T19:13:13.464Z,99997.00
2022-12-08T19:15:43.440Z,99993.56
2022-12-08T19:18:18.823Z,99994.59
2022-12-08T19:20:49.053Z,100003.00
2022-12-08T19:23:22.291Z,99999.69
2022-12-08T19:25:54.557Z,100010.19
2022-12-08T19:28:27.823Z,100006.91
2022-12-08T19:30:57.916Z,100009.41
2022-12-08T19:33:28.304Z,100008.28
2022-12-08T19:35:58.533Z,100011.84
2022-12-08T19:38:58.064Z,100009.47
2022-12-08T19:41:40.951Z,100015.06
2022-12-08T19:44:33.320Z,100015.78
2022-12-08T19:47:03.460Z,100020.25
2022-12-08T19:49:33.990Z,100021.91
2022-12-08T19:52:04.159Z,100025.97
2022-12-08T19:54:34.609Z,100031.78
2022-12-08T19:57:05.313Z,100030.63
2022-12-08T19:59:41.264Z,100028.78
2022-12-08T20:02:11.327Z,100027.22
2022-12-08T20:04:41.703Z,100030.25
2022-12-08T20:07:15.480Z,100030.75
2022-12-08T20:09:45.797Z,100037.59
2022-12-08T20:12:15.749Z,100035.09
2022-12-08T20:14:48.852Z,100029.59
2022-12-08T20:17:19.463Z,100039.13
2022-12-08T20:19:49.880Z,100034.78
2022-12-08T20:22:21.124Z,100035.81
2022-12-08T20:24:59.455Z,100033.22
2022-12-08T20:27:31.536Z,100028.13
2022-12-08T20:30:04.764Z,100023.38
2022-12-08T20:32:35.178Z,100033.56
2022-12-08T20:35:06.489Z,100030.84
2022-12-08T20:37:37.231Z,100031.25
2022-12-08T20:40:09.779Z,100035.22
2022-12-08T20:42:40.261Z,100037.91
2022-12-08T20:45:13.664Z,100044.16
2022-12-08T20:47:43.954Z,100051.00
2022-12-08T20:50:15.014Z,100048.06
2022-12-08T20:52:45.128Z,100049.59
2022-12-08T20:55:15.473Z,100054.97
2022-12-08T20:57:45.525Z,100055.63
2022-12-08T21:00:21.181Z,100057.13
2022-12-08T21:02:56.469Z,100050.72
2022-12-08T21:05:27.903Z,100060.03
2022-12-08T21:07:58.173Z,100056.94
2022-12-08T21:10:28.603Z,100063.38
2022-12-08T21:12:58.676Z,100058.81
2022-12-08T21:15:31.691Z,100067.50
2022-12-08T21:18:01.932Z,100068.59
2022-12-08T21:20:32.474Z,100079.66
2022-12-08T21:23:05.631Z,100070.44
2022-12-08T21:25:38.365Z,100070.75
2022-12-08T21:28:08.442Z,100077.72
2022-12-08T21:30:42.396Z,100077.94
2022-12-08T21:33:12.831Z,100074.59
2022-12-08T21:35:45.577Z,100078.34
2022-12-08T21:38:18.859Z,100084.28
2022-12-08T21:40:51.933Z,100084.28
2022-12-08T21:43:22.286Z,100083.09
2022-12-08T21:45:57.404Z,100091.66
2022-12-08T21:48:29.817Z,100096.69
2022-12-08T21:51:28.921Z,100094.78
2022-12-08T21:54:02.736Z,100093.47
2022-12-08T21:56:37.706Z,100089.47
2022-12-08T21:59:08.009Z,100087.81
2022-12-08T22:01:43.448Z,100083.81
2022-12-08T22:04:14.953Z,100086.16
2022-12-08T22:06:48.694Z,100087.25
2022-12-08T22:09:24.267Z,100096.91
2022-12-08T22:12:02.826Z,100104.44
2022-12-08T22:14:42.206Z,100100.25
2022-12-08T22:17:15.561Z,100099.84
2022-12-08T22:19:46.050Z,100088.19
2022-12-08T22:22:16.577Z,100089.59
2022-12-08T22:24:47.084Z,100092.41
2022-12-08T22:27:18.044Z,100086.81
2022-12-08T22:29:48.374Z,100082.47
2022-12-08T22:32:21.685Z,100086.81
2022-12-08T22:34:51.972Z,100086.81
2022-12-08T22:37:22.788Z,100092.00
2022-12-08T22:39:52.935Z,100100.78
2022-12-08T22:42:23.520Z,100099.31
2022-12-08T22:44:56.186Z,100099.00
2022-12-08T22:47:29.395Z,100103.78
2022-12-08T22:49:59.865Z,100099.91
2022-12-08T22:52:30.785Z,100106.56
2022-12-08T22:55:02.010Z,100100.78
2022-12-08T22:57:35.995Z,100104.13
2022-12-08T23:00:12.545Z,100103.78
2022-12-08T23:02:46.051Z,100103.91
2022-12-08T23:05:16.970Z,100106.25
2022-12-08T23:07:48.029Z,100107.50
2022-12-08T23:10:18.308Z,100096.53
2022-12-08T23:12:48.713Z,100100.72
2022-12-08T23:15:19.054Z,100105.28
2022-12-08T23:17:52.302Z,100097.03
2022-12-08T23:20:22.690Z,100093.69
2022-12-08T23:22:53.397Z,100085.06
2022-12-08T23:25:23.378Z,100083.97
2022-12-08T23:27:54.021Z,100093.66
2022-12-08T23:30:24.445Z,100084.78
2022-12-08T23:32:59.976Z,100089.28
2022-12-08T23:35:30.337Z,100085.06
2022-12-08T23:38:00.771Z,100089.63
2022-12-08T23:40:30.977Z,100083.22
2022-12-08T23:43:01.613Z,100077.41
2022-12-08T23:45:31.810Z,100089.53
2022-12-08T23:48:04.861Z,100084.66
2022-12-08T23:50:34.855Z,100088.06
2022-12-08T23:53:05.393Z,100090.78
2022-12-08T23:55:35.429Z,100091.13
2022-12-08T23:58:06.271Z,100086.41
